Time;durP1;ratioP1;P1;durP2;ratioP2;P2;SDS_P1;SDS_P2;PMS_P1;PMS_P2;Temp;Humidity;BMP_temperature;BMP_pressure;BME280_temperature;BME280_humidity;BME280_pressure;Samples;Min_cycle;Max_cycle;Signal;HPM_P1;HPM_P2
2023/06/01 00:01:37;;;;;;;8.00;4.50;;;;;;;13.53;75.84;102219.53;5035877;28;20033;-86
2023/06/01 00:04:03;;;;;;;10.20;5.00;;;;;;;13.50;77.02;102218.69;5036272;28;20033;-86
2023/06/01 00:06:28;;;;;;;6.47;3.97;;;;;;;13.51;75.01;102218.66;5035314;28;20509;-86
2023/06/01 00:08:55;;;;;;;6.53;4.20;;;;;;;13.47;76.71;102214.34;5035819;28;20045;-86
2023/06/01 00:11:21;;;;;;;8.43;4.40;;;;;;;13.45;76.14;102213.50;5036164;28;20045;-85
2023/06/01 00:13:48;;;;;;;9.05;5.13;;;;;;;13.33;77.27;102216.13;5035525;28;20386;-86
2023/06/01 00:16:16;;;;;;;8.38;4.30;;;;;;;13.34;75.39;102215.25;5036157;28;20053;-86
2023/06/01 00:18:42;;;;;;;6.88;4.00;;;;;;;13.32;77.71;102214.41;5035632;28;20029;-86
2023/06/01 00:21:07;;;;;;;6.67;3.80;;;;;;;13.26;75.10;102210.06;5035372;28;20421;-86
2023/06/01 00:23:34;;;;;;;8.23;4.03;;;;;;;13.26;76.92;102215.28;5035678;28;20028;-85
2023/06/01 00:25:59;;;;;;;5.03;3.60;;;;;;;13.23;74.91;102210.94;5034927;28;20088;-86
2023/06/01 00:28:28;;;;;;;4.43;3.37;;;;;;;13.19;76.01;102205.75;5035944;28;20025;-86
2023/06/01 00:30:53;;;;;;;5.22;3.63;;;;;;;13.15;75.89;102207.50;5035449;28;20470;-86
2023/06/01 00:33:20;;;;;;;4.27;3.10;;;;;;;13.11;76.01;102211.88;5031469;28;20042;-85
2023/06/01 00:35:57;;;;;;;4.60;3.28;;;;;;;12.97;75.55;102201.50;5035249;28;20064;-86
2023/06/01 00:38:22;;;;;;;8.25;4.07;;;;;;;12.92;76.25;102203.25;5035969;28;20029;-86
2023/06/01 00:40:51;;;;;;;8.43;4.10;;;;;;;12.88;77.35;102206.75;5034319;28;20087;-86
2023/06/01 00:43:25;;;;;;;9.57;5.00;;;;;;;12.80;77.22;102204.16;5029896;28;20034;-86
2023/06/01 00:45:50;;;;;;;6.18;3.97;;;;;;;12.67;76.30;102192.88;5035219;28;20392;-86
2023/06/01 00:48:17;;;;;;;11.10;5.63;;;;;;;12.69;78.38;102207.66;5034667;28;20026;-86
2023/06/01 00:50:42;;;;;;;11.52;5.88;;;;;;;12.55;78.87;102205.06;5035349;28;20017;-86
2023/06/01 00:53:18;;;;;;;7.90;4.60;;;;;;;12.55;77.34;102203.34;5035323;28;20029;-86
2023/06/01 00:55:44;;;;;;;8.73;4.72;;;;;;;12.54;77.92;102200.75;5034065;28;20029;-86
2023/06/01 00:58:09;;;;;;;6.03;3.88;;;;;;;12.51;77.94;102205.06;5035476;28;20033;-86
2023/06/01 01:00:35;;;;;;;3.80;3.17;;;;;;;12.53;76.06;102207.69;5034843;28;20055;-86
2023/06/01 01:03:07;;;;;;;7.20;3.97;;;;;;;12.54;80.05;102213.75;5034820;28;20415;-86
2023/06/01 01:05:33;;;;;;;8.73;4.50;;;;;;;12.44;77.83;102216.38;5034925;28;20105;-86
2023/06/01 01:08:30;;;;;;;10.40;5.40;;;;;;;12.35;77.82;102225.06;5034000;28;20040;-86
2023/06/01 01:11:05;;;;;;;9.43;5.10;;;;;;;12.34;76.61;102218.13;5034966;28;20025;-86
2023/06/01 01:13:40;;;;;;;7.00;4.22;;;;;;;12.34;76.20;102227.69;5034643;28;20025;-87
2023/06/01 01:16:27;;;;;;;6.70;4.07;;;;;;;12.33;78.18;102223.34;5034287;28;20029;-86
2023/06/01 01:19:00;;;;;;;8.65;5.03;;;;;;;12.22;78.51;102219.88;5017049;28;20047;-86
2023/06/01 01:21:38;;;;;;;11.38;5.70;;;;;;;12.16;78.96;102223.34;5034953;28;20040;-86
2023/06/01 01:24:28;;;;;;;11.13;5.55;;;;;;;12.10;80.88;102216.38;5016489;28;20053;-86
2023/06/01 01:27:38;;;;;;;9.25;5.15;;;;;;;12.02;80.07;102226.78;5034420;28;20034;-86
2023/06/01 01:30:07;;;;;;;13.05;6.43;;;;;;;11.84;80.88;102221.53;5033689;28;20030;-86
2023/06/01 01:32:35;;;;;;;11.88;5.90;;;;;;;11.79;81.34;102223.25;5034250;28;20041;-86
2023/06/01 01:35:01;;;;;;;16.00;7.40;;;;;;;11.62;81.66;102210.22;5034513;28;20488;-86
2023/06/01 01:37:27;;;;;;;14.00;6.78;;;;;;;11.58;80.85;102222.34;5034114;28;20025;-86
2023/06/01 01:39:52;;;;;;;9.20;5.10;;;;;;;11.58;79.47;102219.75;5033954;28;20116;-86
2023/06/01 01:42:19;;;;;;;9.23;5.13;;;;;;;11.61;79.01;102221.47;5034629;28;20025;-86
2023/06/01 01:44:46;;;;;;;10.68;5.78;;;;;;;11.54;81.38;102228.44;5033516;28;20021;-85
2023/06/01 01:47:15;;;;;;;;;;;;;;;11.53;79.41;102230.13;5035098;28;20104;-86
2023/06/01 01:49:48;;;;;;;13.70;5.60;;;;;;;11.52;80.49;102231.00;5033919;28;20277;-85
2023/06/01 01:52:29;;;;;;;16.67;6.88;;;;;;;11.37;84.18;102230.97;5033795;28;20112;-86
2023/06/01 01:54:55;;;;;;;13.73;6.75;;;;;;;11.25;82.21;102224.84;5034304;28;20065;-86
2023/06/01 01:57:22;;;;;;;13.13;6.60;;;;;;;11.21;81.58;102235.22;5033622;28;20037;-86
2023/06/01 01:59:49;;;;;;;13.48;6.70;;;;;;;11.13;84.04;102232.59;5033212;28;20041;-86
2023/06/01 02:02:14;;;;;;;12.10;6.07;;;;;;;11.11;82.66;102229.97;5034135;28;20100;-86
2023/06/01 02:04:40;;;;;;;11.13;5.53;;;;;;;11.09;82.80;102230.84;5032578;28;20084;-86
2023/06/01 02:07:06;;;;;;;11.43;6.00;;;;;;;11.09;81.45;102236.03;5034201;28;20057;-86
2023/06/01 02:09:31;;;;;;;15.20;7.33;;;;;;;11.01;82.77;102233.38;5033592;28;20125;-86
2023/06/01 02:11:56;;;;;;;16.57;8.03;;;;;;;10.90;84.68;102228.16;5033246;28;20025;-86
2023/06/01 02:14:21;;;;;;;15.07;7.37;;;;;;;10.87;82.97;102225.53;5033700;28;20483;-86
2023/06/01 02:16:47;;;;;;;17.07;7.70;;;;;;;10.81;83.97;102230.66;5033392;28;20025;-85
2023/06/01 02:19:15;;;;;;;14.53;7.07;;;;;;;10.73;85.21;102225.47;5032278;28;20040;-86
2023/06/01 02:21:40;;;;;;;12.85;6.80;;;;;;;10.70;83.63;102219.34;5033690;28;20445;-86
2023/06/01 02:24:07;;;;;;;15.03;7.30;;;;;;;10.69;84.50;102220.25;5033742;28;20057;-86
2023/06/01 02:26:33;;;;;;;16.83;7.50;;;;;;;10.64;86.08;102221.06;5032336;28;20100;-86
2023/06/01 02:28:58;;;;;;;17.92;8.70;;;;;;;10.50;86.59;102218.38;5012549;28;20030;-86
2023/06/01 02:31:24;;;;;;;19.07;9.07;;;;;;;10.43;86.42;102220.91;5013921;28;20088;-86
2023/06/01 02:33:50;;;;;;;18.53;9.10;;;;;;;10.37;87.18;102219.13;5012592;28;20080;-86
2023/06/01 02:36:16;;;;;;;17.67;8.20;;;;;;;10.38;87.79;102223.47;5013875;28;20034;-86
2023/06/01 02:38:42;;;;;;;16.87;8.20;;;;;;;10.36;88.09;102218.22;5033620;28;20536;-85
2023/06/01 02:41:07;;;;;;;13.63;6.83;;;;;;;10.38;87.29;102213.09;5032529;28;20029;-86
2023/06/01 02:43:35;;;;;;;18.20;8.97;;;;;;;10.30;88.16;102219.94;5032814;28;20045;-86
2023/06/01 02:46:01;;;;;;;15.68;7.68;;;;;;;10.33;86.66;102217.34;5033005;28;20024;-86
2023/06/01 02:48:26;;;;;;;17.63;8.30;;;;;;;10.25;87.75;102219.00;5033172;28;20026;-86
2023/06/01 02:50:51;;;;;;;15.90;7.20;;;;;;;10.24;86.50;102220.75;5033043;28;20029;-87
2023/06/01 02:53:16;;;;;;;17.23;7.60;;;;;;;10.23;87.41;102220.72;5032686;28;20102;-86
2023/06/01 02:55:42;;;;;;;13.67;6.43;;;;;;;10.32;86.28;102226.88;5032072;28;20053;-87
2023/06/01 02:58:14;;;;;;;10.10;5.50;;;;;;;10.40;85.57;102223.47;5033192;28;20025;-86
2023/06/01 03:00:39;;;;;;;9.18;4.93;;;;;;;10.46;85.08;102218.34;5030500;28;20041;-86
2023/06/01 03:03:05;;;;;;;11.90;5.90;;;;;;;10.45;85.86;102221.81;5032658;28;20071;-87
2023/06/01 03:05:32;;;;;;;10.20;5.10;;;;;;;10.42;85.51;102213.97;5032891;28;20147;-86
2023/06/01 03:07:58;;;;;;;7.78;4.47;;;;;;;10.49;84.09;102215.75;5032202;28;20025;-86
2023/06/01 03:10:24;;;;;;;15.03;6.00;;;;;;;10.54;85.41;102219.25;5033209;28;20454;-86
2023/06/01 03:12:49;;;;;;;12.93;6.20;;;;;;;10.53;85.72;102230.50;5032298;28;20120;-86
2023/06/01 03:15:15;;;;;;;17.07;8.53;;;;;;;10.20;88.34;102232.81;5031754;28;20382;-85
2023/06/01 03:17:40;;;;;;;14.27;7.00;;;;;;;10.17;87.98;102231.91;5032681;28;20029;-85
2023/06/01 03:20:14;;;;;;;15.53;7.03;;;;;;;10.19;88.15;102238.00;5032729;28;20032;-86
2023/06/01 03:22:40;;;;;;;14.80;6.93;;;;;;;10.16;88.00;102224.97;5032071;28;20028;-85
2023/06/01 03:25:07;;;;;;;15.07;6.80;;;;;;;10.19;87.74;102238.84;5032434;28;20068;-85
2023/06/01 03:27:32;;;;;;;16.60;7.25;;;;;;;10.11;87.45;102232.72;5032354;28;20112;-86
2023/06/01 03:30:01;;;;;;;17.83;7.93;;;;;;;9.88;89.87;102229.94;5031536;28;20534;-85
2023/06/01 03:32:26;;;;;;;17.30;8.40;;;;;;;9.79;90.43;102224.66;5032647;28;20021;-86
2023/06/01 03:34:54;;;;;;;17.20;7.57;;;;;;;9.74;89.92;102222.00;5032008;28;20103;-85
2023/06/01 03:37:20;;;;;;;14.98;7.07;;;;;;;9.72;90.08;102216.81;5032463;28;20152;-86
2023/06/01 03:39:45;;;;;;;16.37;7.07;;;;;;;9.80;89.73;102232.44;5032085;28;20036;-85
2023/06/01 03:42:11;;;;;;;14.33;6.50;;;;;;;9.83;90.19;102231.59;5032136;28;20525;-86
2023/06/01 03:44:36;;;;;;;13.57;6.50;;;;;;;9.84;89.61;102228.16;5031489;28;20037;-85
2023/06/01 03:47:02;;;;;;;11.70;5.70;;;;;;;9.89;88.89;102222.16;5032321;28;20036;-86
2023/06/01 03:49:27;;;;;;;11.83;5.67;;;;;;;9.98;88.10;102230.88;5032242;28;20029;-85
2023/06/01 03:51:53;;;;;;;12.47;5.60;;;;;;;10.01;88.61;102241.28;5031899;28;20033;-85
2023/06/01 03:54:19;;;;;;;12.03;5.83;;;;;;;10.01;88.28;102239.56;5032642;28;20466;-85
2023/06/01 03:56:44;;;;;;;12.02;5.95;;;;;;;10.03;88.06;102240.44;5031816;28;20410;-85
2023/06/01 03:59:10;;;;;;;7.13;4.30;;;;;;;10.10;87.24;102235.31;5031924;28;20045;-85
2023/06/01 04:01:36;;;;;;;12.33;6.00;;;;;;;10.14;87.40;102231.88;5032287;28;20056;-86
2023/06/01 04:04:04;;;;;;;12.07;5.60;;;;;;;10.07;87.56;102217.13;5031581;28;20025;-86
2023/06/01 04:06:29;;;;;;;10.35;5.00;;;;;;;10.24;87.72;102241.50;5032114;28;20481;-85
2023/06/01 04:09:00;;;;;;;10.63;5.30;;;;;;;10.23;87.24;102241.47;5032146;28;20021;-86
2023/06/01 04:11:26;;;;;;;13.65;6.25;;;;;;;10.20;87.66;102231.94;5031805;28;20451;-86
2023/06/01 04:13:51;;;;;;;16.43;6.80;;;;;;;10.15;88.22;102238.81;5031564;28;20113;-85
2023/06/01 04:16:17;;;;;;;13.87;6.33;;;;;;;10.18;87.93;102241.44;5031985;28;20065;-85
2023/06/01 04:18:43;;;;;;;13.13;6.32;;;;;;;10.14;87.83;102229.28;5031039;28;20022;-86
2023/06/01 04:21:09;;;;;;;10.00;5.27;;;;;;;10.24;86.70;102235.44;5032494;28;20489;-85
2023/06/01 04:23:34;;;;;;;11.07;5.10;;;;;;;10.30;86.67;102236.34;5031757;28;20053;-85
2023/06/01 04:26:00;;;;;;;6.90;4.23;;;;;;;10.40;86.27;102239.06;5031362;28;20091;-85
2023/06/01 04:28:29;;;;;;;5.67;3.57;;;;;;;10.50;85.63;102235.66;5032381;28;20029;-86
2023/06/01 04:30:55;;;;;;;7.45;3.67;;;;;;;10.57;85.25;102242.66;5032055;28;20045;-85
2023/06/01 04:33:22;;;;;;;8.03;4.17;;;;;;;10.62;85.00;102234.91;5031188;28;20068;-85
2023/06/01 04:35:52;;;;;;;11.73;6.13;;;;;;;10.58;84.95;102246.09;5032032;28;20358;-88
2023/06/01 04:38:18;;;;;;;14.90;6.80;;;;;;;10.54;85.11;102237.44;5032290;28;20075;-86
2023/06/01 04:40:46;;;;;;;10.33;5.60;;;;;;;10.55;84.91;102244.38;5031571;28;20021;-87
2023/06/01 04:43:12;;;;;;;9.30;4.80;;;;;;;10.61;84.28;102247.00;5034438;28;20048;-87
2023/06/01 04:45:38;;;;;;;11.77;5.23;;;;;;;10.62;84.79;102250.47;5035186;28;20393;-87
2023/06/01 04:48:08;;;;;;;14.02;6.80;;;;;;;10.55;85.02;102244.38;5035099;28;20091;-87
2023/06/01 04:50:34;;;;;;;13.75;6.13;;;;;;;10.56;84.17;102248.72;5035400;28;20029;-88
2023/06/01 04:53:00;;;;;;;8.80;4.95;;;;;;;10.69;83.19;102256.59;5035212;28;20469;-86
2023/06/01 04:55:26;;;;;;;14.10;5.90;;;;;;;10.65;84.11;102253.06;5035020;28;20143;-87
2023/06/01 04:57:51;;;;;;;10.87;5.70;;;;;;;10.63;83.89;102253.06;5035238;28;20072;-86
2023/06/01 05:00:18;;;;;;;12.30;6.23;;;;;;;10.62;84.22;102264.31;5033832;28;20046;-87
2023/06/01 05:02:44;;;;;;;;;;;;;;;10.66;84.25;102245.31;5035629;28;20026;-86
2023/06/01 05:05:12;;;;;;;13.57;6.20;;;;;;;10.65;84.22;102238.38;5035396;28;19909;-87
2023/06/01 05:07:39;;;;;;;13.02;6.03;;;;;;;10.70;83.35;102246.19;5034224;28;20492;-86
2023/06/01 05:10:09;;;;;;;10.20;5.30;;;;;;;10.77;83.22;102237.59;5035376;28;20033;-87
2023/06/01 05:12:39;;;;;;;10.50;5.30;;;;;;;10.82;83.53;102235.91;5034710;28;20358;-86
2023/06/01 05:15:06;;;;;;;9.23;4.63;;;;;;;10.93;82.86;102237.69;5034320;28;20029;-85
2023/06/01 05:17:32;;;;;;;7.75;4.20;;;;;;;11.04;82.69;102237.72;5034808;28;20041;-87
2023/06/01 05:19:57;;;;;;;8.93;4.47;;;;;;;11.15;81.48;102245.59;5035266;28;20363;-87
2023/06/01 05:22:23;;;;;;;11.43;5.40;;;;;;;11.23;81.60;102238.69;5034495;28;20021;-87
2023/06/01 05:24:49;;;;;;;13.68;6.15;;;;;;;11.31;80.62;102239.59;5034794;28;20083;-86
2023/06/01 05:27:15;;;;;;;11.80;6.03;;;;;;;11.31;80.31;102249.13;5034345;28;20120;-87
2023/06/01 05:29:41;;;;;;;8.65;4.95;;;;;;;11.26;80.97;102239.56;5034282;28;20489;-87
2023/06/01 05:32:07;;;;;;;9.77;4.70;;;;;;;11.32;80.57;102235.25;5034256;28;20026;-87
2023/06/01 05:34:32;;;;;;;6.27;4.03;;;;;;;11.40;81.03;102243.94;5033943;28;20037;-86
2023/06/01 05:36:57;;;;;;;9.00;5.00;;;;;;;11.42;80.74;102250.03;5033814;28;20036;-87
2023/06/01 05:39:27;;;;;;;13.70;6.70;;;;;;;11.36;80.40;102248.28;5034276;28;20062;-84
2023/06/01 05:42:01;;;;;;;13.98;6.30;;;;;;;11.22;80.18;102235.22;5034111;28;20033;-87
2023/06/01 05:44:27;;;;;;;16.33;6.80;;;;;;;11.16;80.51;102242.13;5033583;28;20037;-80
2023/06/01 05:46:52;;;;;;;12.30;5.80;;;;;;;11.09;80.22;102229.09;5034365;28;20022;-88
2023/06/01 05:49:20;;;;;;;10.37;5.30;;;;;;;11.13;80.58;102245.59;5034314;28;20026;-86
2023/06/01 05:51:46;;;;;;;11.57;6.00;;;;;;;11.03;80.78;102236.88;5033573;28;20116;-87
2023/06/01 05:54:17;;;;;;;14.40;6.27;;;;;;;11.01;80.76;102243.78;5034500;28;20057;-88
2023/06/01 05:56:42;;;;;;;12.23;6.03;;;;;;;10.93;80.99;102238.53;5033631;28;20381;-87
2023/06/01 05:59:08;;;;;;;20.67;8.40;;;;;;;10.72;82.19;102247.09;5034238;28;20038;-86
2023/06/01 06:01:33;;;;;;;17.17;7.97;;;;;;;10.70;82.32;102247.91;5034882;28;20029;-90
2023/06/01 06:03:59;;;;;;;14.97;7.60;;;;;;;10.74;81.78;102242.78;5033922;28;20363;-90
2023/06/01 06:06:25;;;;;;;17.83;8.43;;;;;;;10.62;82.17;102230.56;5035347;28;20040;-91
2023/06/01 06:08:51;;;;;;;21.45;9.18;;;;;;;10.57;82.99;102245.25;5034872;28;20508;-91
2023/06/01 06:11:16;;;;;;;19.10;8.73;;;;;;;10.58;83.25;102243.50;5033903;28;20018;-89
2023/06/01 06:13:41;;;;;;;19.67;8.97;;;;;;;10.48;83.58;102242.56;5034617;28;20049;-89
2023/06/01 06:16:07;;;;;;;16.63;8.07;;;;;;;10.63;83.48;102247.03;5035056;28;20030;-89
2023/06/01 06:18:33;;;;;;;15.70;7.20;;;;;;;10.76;82.90;102247.97;5033906;28;20021;-91
2023/06/01 06:20:58;;;;;;;14.20;6.60;;;;;;;10.92;83.00;102259.31;5034511;28;20017;-90
2023/06/01 06:23:23;;;;;;;12.77;6.40;;;;;;;11.11;82.62;102257.69;5034462;28;20049;-87
2023/06/01 06:25:49;;;;;;;15.50;7.00;;;;;;;11.53;80.86;102253.53;5033678;28;20052;-83
2023/06/01 06:28:15;;;;;;;15.63;7.20;;;;;;;12.06;79.39;102258.88;5035491;28;20021;-90
2023/06/01 06:30:40;;;;;;;19.07;8.60;;;;;;;12.72;75.04;102257.16;5034479;28;20029;-90
2023/06/01 06:33:05;;;;;;;16.23;7.40;;;;;;;13.04;76.13;102251.88;5034985;28;20338;-91
2023/06/01 06:35:31;;;;;;;16.57;7.60;;;;;;;13.86;71.52;102255.84;5034374;28;20040;-91
2023/06/01 06:37:56;;;;;;;13.13;6.33;;;;;;;14.23;75.38;102252.13;5034817;28;20057;-92
2023/06/01 06:40:21;;;;;;;10.53;5.50;;;;;;;14.91;70.67;102241.91;5034715;28;20034;-90
2023/06/01 06:42:47;;;;;;;10.03;5.50;;;;;;;15.31;68.93;102247.56;5034557;28;20096;-91
2023/06/01 06:45:12;;;;;;;12.43;6.10;;;;;;;15.42;68.76;102243.06;5034613;28;20546;-91
2023/06/01 06:47:38;;;;;;;13.37;5.43;;;;;;;15.52;68.12;102255.13;5034451;28;20433;-90
2023/06/01 06:50:03;;;;;;;10.30;4.97;;;;;;;15.63;67.91;102252.34;5034903;28;20095;-87
2023/06/01 06:52:29;;;;;;;8.20;4.40;;;;;;;15.69;68.75;102260.13;5034733;28;20033;-92
2023/06/01 06:54:54;;;;;;;10.97;4.90;;;;;;;15.63;66.28;102259.34;5035289;28;20029;-91
2023/06/01 06:57:20;;;;;;;8.97;4.60;;;;;;;15.35;65.02;102264.94;5034978;28;20289;-91
2023/06/01 06:59:46;;;;;;;10.60;5.73;;;;;;;14.92;64.96;102263.69;5035359;28;20053;-93
2023/06/01 07:02:11;;;;;;;10.60;5.40;;;;;;;14.55;67.13;102264.03;5035277;28;20017;-90
2023/06/01 07:04:36;;;;;;;8.50;5.17;;;;;;;14.46;67.51;102271.09;5035105;28;20038;-92
2023/06/01 07:07:04;;;;;;;18.47;8.50;;;;;;;13.63;68.18;102269.03;5035146;28;20029;-91
2023/06/01 07:09:29;;;;;;;18.17;8.43;;;;;;;13.35;69.43;102262.19;5036538;28;20037;-92
2023/06/01 07:11:54;;;;;;;15.43;7.33;;;;;;;13.52;69.72;102277.78;5035722;28;20347;-89
2023/06/01 07:14:20;;;;;;;16.67;8.30;;;;;;;13.11;71.48;102252.72;5035345;28;20022;-93
2023/06/01 07:16:45;;;;;;;14.47;7.27;;;;;;;13.37;70.66;102262.16;5036307;28;20072;-91
2023/06/01 07:19:11;;;;;;;17.17;7.77;;;;;;;13.12;71.34;102259.63;5039104;28;20036;-90
2023/06/01 07:21:37;;;;;;;17.70;8.00;;;;;;;13.20;71.86;102250.06;5037251;28;20509;-91
2023/06/01 07:24:03;;;;;;;19.47;8.10;;;;;;;13.11;71.25;102257.94;5034705;28;20521;-93
2023/06/01 07:26:33;;;;;;;16.92;8.10;;;;;;;13.26;70.82;102251.78;5035738;28;20030;-92
2023/06/01 07:28:59;;;;;;;17.92;7.90;;;;;;;13.31;71.01;102252.63;5034687;28;20033;-92
2023/06/01 07:31:25;;;;;;;19.30;8.93;;;;;;;13.09;71.03;102252.72;5036446;28;20013;-91
2023/06/01 07:33:51;;;;;;;15.20;7.17;;;;;;;13.47;71.47;102258.66;5035953;28;20129;-90
2023/06/01 07:36:18;;;;;;;16.13;7.88;;;;;;;13.93;69.98;102257.56;5036028;28;20034;-90
2023/06/01 07:38:45;;;;;;;16.45;7.13;;;;;;;14.12;68.45;102266.13;5034969;28;20029;-91
2023/06/01 07:41:13;;;;;;;16.80;7.18;;;;;;;14.28;68.38;102261.66;5034434;28;20045;-91
2023/06/01 07:43:38;;;;;;;13.15;6.20;;;;;;;14.46;69.02;102251.91;5034330;28;20033;-91
2023/06/01 07:46:04;;;;;;;9.63;5.23;;;;;;;14.79;66.43;102252.50;5034472;28;20052;-91
2023/06/01 07:48:38;;;;;;;13.23;5.80;;;;;;;14.87;67.25;102257.66;5033466;28;20030;-91
2023/06/01 07:51:05;;;;;;;10.75;5.78;;;;;;;15.03;65.63;102246.13;5034538;28;20045;-90
2023/06/01 07:53:38;;;;;;;12.52;5.75;;;;;;;15.17;66.75;102245.09;5033430;28;20025;-84
2023/06/01 07:56:04;;;;;;;11.38;5.70;;;;;;;15.48;65.22;102248.19;5034430;28;20030;-92
2023/06/01 07:58:38;;;;;;;14.13;6.23;;;;;;;15.45;62.98;102245.63;5027639;28;20532;-89
2023/06/01 08:01:05;;;;;;;11.00;5.88;;;;;;;15.55;64.50;102255.06;5029873;28;20037;-89
2023/06/01 08:03:33;;;;;;;;;;;;;;;15.62;63.33;102255.00;5034875;28;20025;-89
2023/06/01 08:06:04;;;;;;;13.10;5.30;;;;;;;15.69;64.72;102260.13;5033609;28;20400;-89
2023/06/01 08:08:30;;;;;;;10.25;5.47;;;;;;;15.72;60.74;102253.97;5032702;28;20021;-89
2023/06/01 08:11:11;;;;;;;13.40;6.30;;;;;;;15.54;62.45;102242.03;5033229;28;20109;-90
2023/06/01 08:13:49;;;;;;;13.18;5.78;;;;;;;15.47;61.09;102251.69;5032950;28;20310;-91
2023/06/01 08:16:14;;;;;;;14.45;6.35;;;;;;;15.51;63.43;102247.28;5032289;28;20022;-90
2023/06/01 08:18:40;;;;;;;16.30;7.33;;;;;;;15.17;62.77;102248.59;5035768;28;20032;-89
2023/06/01 08:21:08;;;;;;;16.17;7.30;;;;;;;15.17;63.75;102245.97;5036968;28;20108;-90
2023/06/01 08:23:34;;;;;;;14.10;6.75;;;;;;;15.25;63.38;102241.50;5036727;28;20075;-90
2023/06/01 08:25:59;;;;;;;14.23;6.67;;;;;;;15.38;63.92;102242.22;5036424;28;20026;-89
2023/06/01 08:28:34;;;;;;;9.77;5.20;;;;;;;15.65;64.08;102236.66;5028483;28;20153;-90
2023/06/01 08:30:59;;;;;;;11.90;6.15;;;;;;;15.89;61.99;102249.38;5036094;28;20362;-90
2023/06/01 08:33:33;;;;;;;19.53;8.33;;;;;;;15.66;61.68;102233.13;5023906;28;20029;-89
2023/06/01 08:35:59;;;;;;;17.70;7.60;;;;;;;15.63;60.96;102241.88;5033373;28;20033;-89
2023/06/01 08:38:38;;;;;;;15.37;7.00;;;;;;;15.73;63.23;102248.72;5036509;28;20038;-89
2023/06/01 08:41:31;;;;;;;11.38;5.00;;;;;;;16.11;63.14;102235.09;5036355;28;20492;-92
2023/06/01 08:44:11;;;;;;;15.45;7.47;;;;;;;16.00;59.45;102241.38;5037062;28;20113;-92
2023/06/01 08:46:41;;;;;;;18.45;8.73;;;;;;;15.62;60.57;102245.38;5036070;28;20029;-91
2023/06/01 08:49:07;;;;;;;17.63;8.48;;;;;;;15.60;62.61;102248.03;5037404;28;20113;-92
2023/06/01 08:51:38;;;;;;;12.15;6.07;;;;;;;15.80;63.33;102215.47;5036311;28;20057;-90
2023/06/01 08:54:12;;;;;;;13.88;7.15;;;;;;;16.20;62.07;102232.31;5037097;28;20087;-92
2023/06/01 08:56:42;;;;;;;16.75;7.15;;;;;;;16.23;59.68;102218.31;5036160;28;20079;-91
2023/06/01 08:59:13;;;;;;;15.63;7.70;;;;;;;16.34;61.02;102237.31;5036121;28;20045;-92
2023/06/01 09:01:39;;;;;;;13.40;6.22;;;;;;;16.57;61.56;102230.81;5036301;28;20033;-91
2023/06/01 09:04:04;;;;;;;12.97;5.90;;;;;;;16.86;60.45;102226.78;5034604;28;20033;-88
2023/06/01 09:06:29;;;;;;;17.50;8.63;;;;;;;16.70;57.16;102226.22;5034578;28;20037;-86
2023/06/01 09:08:55;;;;;;;14.90;7.20;;;;;;;16.74;60.14;102225.25;5035693;28;20126;-89
2023/06/01 09:11:21;;;;;;;14.80;6.97;;;;;;;16.87;58.81;102228.50;5035926;28;20065;-88
2023/06/01 09:13:46;;;;;;;11.43;6.32;;;;;;;17.10;59.19;102225.44;5035236;28;20033;-91
2023/06/01 09:16:12;;;;;;;14.77;6.70;;;;;;;17.33;57.93;102216.22;5036713;28;20033;-96
2023/06/01 09:18:51;;;;;;;17.53;8.53;;;;;;;17.31;57.69;102218.00;5036071;28;20473;-86
2023/06/01 09:21:16;;;;;;;14.90;7.05;;;;;;;17.46;57.88;102212.44;5034341;28;20029;-84
2023/06/01 09:23:45;;;;;;;14.10;6.03;;;;;;;17.67;58.51;102218.97;5035808;28;20032;-90
2023/06/01 09:26:12;;;;;;;16.10;7.53;;;;;;;17.80;55.71;102218.66;5036146;28;20017;-93
2023/06/01 09:28:57;;;;;;;14.93;7.47;;;;;;;17.74;56.40;102212.66;5036610;28;20029;-93
2023/06/01 09:31:35;;;;;;;17.67;7.90;;;;;;;17.65;55.17;102202.38;5039462;28;20036;-92
2023/06/01 09:34:01;;;;;;;15.85;7.00;;;;;;;17.82;56.01;102203.72;5035911;28;20112;-92
2023/06/01 09:36:26;;;;;;;13.52;6.70;;;;;;;17.95;57.04;102199.91;5036392;28;20060;-92
2023/06/01 09:39:09;;;;;;;12.83;6.53;;;;;;;18.15;56.01;102195.94;5036044;28;20021;-94
2023/06/01 09:41:47;;;;;;;15.65;7.68;;;;;;;18.21;52.85;102196.66;5035779;28;20041;-94
2023/06/01 09:44:14;;;;;;;18.63;7.63;;;;;;;18.04;53.67;102199.72;5036038;28;20045;-94
2023/06/01 09:47:15;;;;;;;12.38;6.07;;;;;;;18.21;56.10;102186.16;5025942;28;20044;-95
2023/06/01 09:49:45;;;;;;;14.65;6.50;;;;;;;18.40;55.17;102188.31;5035780;28;20040;-95
2023/06/01 09:52:14;;;;;;;10.40;5.20;;;;;;;18.66;55.65;102194.59;5036553;28;20048;-93
2023/06/01 09:54:41;;;;;;;14.73;6.45;;;;;;;18.87;52.42;102195.75;5036209;28;20067;-93
2023/06/01 09:57:07;;;;;;;;;;;;;;;18.66;51.76;102192.84;5035691;28;20049;-95
2023/06/01 09:59:38;;;;;;;15.88;7.35;;;;;;;18.57;53.83;102194.84;5035097;28;19955;-96
2023/06/01 10:02:04;;;;;;;15.35;6.43;;;;;;;18.68;53.40;102190.16;5035639;28;20077;-94
2023/06/01 10:04:30;;;;;;;13.20;6.00;;;;;;;18.86;53.71;102178.25;5035282;28;20459;-96
2023/06/01 10:06:57;;;;;;;12.88;5.88;;;;;;;19.05;52.15;102194.41;5035712;28;20022;-95
2023/06/01 10:09:27;;;;;;;11.18;5.57;;;;;;;19.19;50.07;102186.09;5035487;28;20040;-92
2023/06/01 10:11:55;;;;;;;15.95;7.25;;;;;;;19.24;49.98;102185.94;5034683;28;20025;-90
2023/06/01 10:14:24;;;;;;;15.18;7.03;;;;;;;19.36;50.69;102182.09;5033257;28;20385;-86
2023/06/01 10:16:51;;;;;;;10.07;5.13;;;;;;;19.44;49.49;102177.44;5033007;28;20040;-86
2023/06/01 10:19:17;;;;;;;15.10;6.95;;;;;;;19.55;49.58;102183.22;5033860;28;20393;-88
2023/06/01 10:21:45;;;;;;;11.45;5.32;;;;;;;19.60;50.47;102173.38;5033766;28;20028;-88
2023/06/01 10:24:11;;;;;;;14.15;6.70;;;;;;;19.77;48.48;102187.81;5033358;28;20147;-87
2023/06/01 10:26:42;;;;;;;;;;;;;;;19.89;49.06;102170.75;5034781;28;20022;-88
2023/06/01 10:29:09;;;;;;;9.98;5.10;;;;;;;20.09;50.43;102167.44;5033563;28;19971;-90
2023/06/01 10:31:40;;;;;;;15.82;6.93;;;;;;;19.93;48.71;102159.19;5033425;28;20025;-89
2023/06/01 10:34:07;;;;;;;12.30;5.90;;;;;;;20.00;50.05;102168.59;5033478;28;20036;-87
2023/06/01 10:36:51;;;;;;;13.98;6.80;;;;;;;20.03;50.12;102176.41;5033736;28;20026;-89
2023/06/01 10:39:27;;;;;;;14.23;6.30;;;;;;;20.15;50.53;102169.84;5033398;28;20151;-87
2023/06/01 10:41:55;;;;;;;12.02;5.72;;;;;;;20.38;49.81;102178.72;5033896;28;20034;-84
2023/06/01 10:44:39;;;;;;;16.42;7.78;;;;;;;20.30;48.40;102173.75;5033420;28;20061;-87
2023/06/01 10:47:10;;;;;;;16.25;7.32;;;;;;;20.32;48.96;102166.63;5033109;28;20086;-87
2023/06/01 10:49:50;;;;;;;14.80;7.47;;;;;;;20.09;47.80;102166.59;5032505;28;20113;-88
2023/06/01 10:52:29;;;;;;;14.90;6.43;;;;;;;19.98;48.82;102169.59;5032450;28;20029;-87
2023/06/01 10:55:16;;;;;;;18.35;7.95;;;;;;;19.86;49.44;102160.34;5033130;28;20025;-88
2023/06/01 10:57:43;;;;;;;15.32;7.65;;;;;;;19.92;49.67;102164.53;5032709;28;20169;-88
2023/06/01 11:00:28;;;;;;;10.45;5.30;;;;;;;20.26;50.80;102163.38;5032654;28;20045;-87
2023/06/01 11:03:02;;;;;;;11.00;5.68;;;;;;;20.56;47.99;102171.09;5033101;28;20030;-88
2023/06/01 11:05:33;;;;;;;14.75;7.30;;;;;;;20.31;48.60;102164.94;5032865;28;20378;-86
2023/06/01 11:07:59;;;;;;;9.98;5.35;;;;;;;20.46;50.44;102147.69;5032574;28;20492;-92
2023/06/01 11:10:52;;;;;;;15.87;7.07;;;;;;;20.66;47.05;102157.50;5033665;28;20021;-87
2023/06/01 11:13:21;;;;;;;10.95;5.50;;;;;;;20.81;49.96;102152.59;5031863;28;20025;-87
2023/06/01 11:16:14;;;;;;;12.13;5.85;;;;;;;21.10;46.51;102153.28;5030880;28;20116;-86
2023/06/01 11:18:59;;;;;;;15.20;6.88;;;;;;;21.09;47.74;102141.84;5032001;28;20033;-87
2023/06/01 11:21:25;;;;;;;14.68;7.45;;;;;;;21.16;46.47;102145.09;5032348;28;20026;-87
2023/06/01 11:23:52;;;;;;;16.90;8.30;;;;;;;20.88;46.41;102142.69;5032657;28;20022;-87
2023/06/01 11:26:20;;;;;;;17.05;7.97;;;;;;;20.63;46.54;102146.19;5032519;28;20048;-86